Time;durP1;ratioP1;P1;durP2;ratioP2;P2;SDS_P1;SDS_P2;PMS_P1;PMS_P2;Temp;Humidity;BMP_temperature;BMP_pressure;BME280_temperature;BME280_humidity;BME280_pressure;Samples;Min_cycle;Max_cycle;Signal;HPM_P1;HPM_P2
2023/05/08 00:01:06;;;;;;;392.57;370.40;;;15.30;51.20;;;;;;4995557;28;20422;-70
2023/05/08 00:03:31;;;;;;;397.63;374.93;;;15.20;51.20;;;;;;4993017;28;20172;-70
2023/05/08 00:05:57;;;;;;;370.30;349.40;;;15.20;52.10;;;;;;4992020;28;20177;-70
2023/05/08 00:08:23;;;;;;;448.63;423.87;;;15.20;52.30;;;;;;4992036;28;20647;-70
2023/05/08 00:10:48;;;;;;;363.37;343.03;;;15.20;53.30;;;;;;4991697;28;20196;-70
2023/05/08 00:13:14;;;;;;;290.43;272.83;;;15.10;53.30;;;;;;4993001;28;20177;-71
2023/05/08 00:15:39;;;;;;;395.07;373.27;;;15.10;53.90;;;;;;4991748;28;20188;-70
2023/05/08 00:18:05;;;;;;;518.63;485.40;;;15.20;53.10;;;;;;4991600;28;20290;-71
2023/05/08 00:20:31;;;;;;;398.03;375.60;;;15.10;53.70;;;;;;4992933;28;20188;-70
2023/05/08 00:22:57;;;;;;;609.70;571.87;;;15.00;55.80;;;;;;4992787;28;20219;-70
2023/05/08 00:25:22;;;;;;;396.47;373.77;;;15.00;55.10;;;;;;4991711;28;20408;-71
2023/05/08 00:27:49;;;;;;;305.13;286.97;;;15.00;55.80;;;;;;4993101;28;20538;-70
2023/05/08 00:30:15;;;;;;;447.00;421.63;;;15.00;55.70;;;;;;4992943;28;20243;-71
2023/05/08 00:32:40;;;;;;;466.93;439.93;;;15.00;55.70;;;;;;4993215;28;20848;-71
2023/05/08 00:35:06;;;;;;;461.70;435.37;;;15.00;55.00;;;;;;4993194;28;20211;-71
2023/05/08 00:37:32;;;;;;;451.47;424.27;;;15.00;53.30;;;;;;4993030;28;20204;-71
2023/05/08 00:39:57;;;;;;;363.97;344.37;;;15.00;55.70;;;;;;4992732;28;20996;-71
2023/05/08 00:42:23;;;;;;;380.20;359.20;;;15.00;55.80;;;;;;4992527;28;20231;-71
2023/05/08 00:44:49;;;;;;;518.77;487.63;;;15.00;54.70;;;;;;4992706;28;20200;-71
2023/05/08 00:47:14;;;;;;;376.67;355.80;;;15.10;54.60;;;;;;4992710;28;20179;-71
2023/05/08 00:49:40;;;;;;;414.67;392.10;;;15.10;53.90;;;;;;4992660;28;20343;-71
2023/05/08 00:52:07;;;;;;;376.60;355.87;;;15.10;54.10;;;;;;4992419;28;20662;-71
2023/05/08 00:54:35;;;;;;;404.83;382.27;;;15.00;55.00;;;;;;4992671;28;20498;-71
2023/05/08 00:57:01;;;;;;;381.87;360.57;;;15.10;55.40;;;;;;4992693;28;20425;-71
2023/05/08 00:59:27;;;;;;;425.70;401.30;;;15.10;54.40;;;;;;4992719;28;20451;-71
2023/05/08 01:01:52;;;;;;;388.20;366.30;;;15.10;54.30;;;;;;4991193;28;20420;-71
2023/05/08 01:04:23;;;;;;;456.40;431.77;;;15.10;54.60;;;;;;4992575;28;20177;-71
2023/05/08 01:06:49;;;;;;;460.10;434.53;;;15.10;55.90;;;;;;4991364;28;20176;-71
2023/05/08 01:09:14;;;;;;;405.07;381.73;;;15.00;55.80;;;;;;4992351;28;20446;-71
2023/05/08 01:12:05;;;;;;;446.33;421.70;;;15.00;55.80;;;;;;4992273;28;20180;-71
2023/05/08 01:15:08;;;;;;;366.93;346.00;;;15.00;56.50;;;;;;4995586;28;20188;-71
2023/05/08 01:17:39;;;;;;;413.37;390.70;;;15.10;55.90;;;;;;4995058;28;21038;-72
2023/05/08 01:20:13;;;;;;;349.43;330.10;;;15.10;55.90;;;;;;4996331;28;20949;-71
2023/05/08 01:22:57;;;;;;;459.83;434.93;;;15.10;55.90;;;;;;4996664;28;20412;-71
2023/05/08 01:25:41;;;;;;;359.73;339.97;;;15.20;55.30;;;;;;4995025;28;20404;-71
2023/05/08 01:28:25;;;;;;;420.00;397.53;;;15.20;55.00;;;;;;4996330;28;20415;-71
2023/05/08 01:31:06;;;;;;;443.50;420.10;;;15.20;54.50;;;;;;4994997;28;20427;-71
2023/05/08 01:33:47;;;;;;;431.43;407.10;;;15.30;54.20;;;;;;4995994;28;20543;-71
2023/05/08 01:36:42;;;;;;;454.57;430.13;;;15.20;53.90;;;;;;4995948;28;20412;-71
2023/05/08 01:39:16;;;;;;;403.63;380.43;;;15.20;54.60;;;;;;4991722;28;20485;-71
2023/05/08 01:42:06;;;;;;;398.33;376.40;;;15.20;54.70;;;;;;4995793;28;20513;-71
2023/05/08 01:44:36;;;;;;;452.13;426.80;;;15.20;55.00;;;;;;4996038;28;20436;-71
2023/05/08 01:47:06;;;;;;;453.80;429.37;;;15.20;55.50;;;;;;4995940;28;20420;-71
2023/05/08 01:49:51;;;;;;;331.57;312.10;;;15.20;54.20;;;;;;4995688;28;20471;-71
2023/05/08 01:52:47;;;;;;;355.07;335.63;;;15.30;54.90;;;;;;4994255;28;20459;-71
2023/05/08 01:55:23;;;;;;;385.93;364.70;;;15.20;55.20;;;;;;4995704;28;20447;-71
2023/05/08 01:57:52;;;;;;;433.67;409.43;;;15.30;53.60;;;;;;4995672;28;20477;-71
2023/05/08 02:00:20;;;;;;;390.80;369.17;;;15.20;54.20;;;;;;4994268;28;20436;-71
2023/05/08 02:02:48;;;;;;;378.27;357.60;;;15.20;54.10;;;;;;4994168;28;20420;-71
2023/05/08 02:05:14;;;;;;;436.77;412.10;;;15.30;54.10;;;;;;4995546;28;20889;-71
2023/05/08 02:07:42;;;;;;;407.17;384.23;;;15.30;53.70;;;;;;4995554;28;20447;-70
2023/05/08 02:10:10;;;;;;;368.33;347.63;;;15.20;53.30;;;;;;4994195;28;20443;-70
2023/05/08 02:12:36;;;;;;;324.33;305.43;;;15.20;54.40;;;;;;4995139;28;20932;-71
2023/05/08 02:15:03;;;;;;;405.33;383.20;;;15.30;53.40;;;;;;4995490;28;20486;-71
2023/05/08 02:17:30;;;;;;;407.77;383.83;;;15.30;53.40;;;;;;4995143;28;20462;-71
2023/05/08 02:19:58;;;;;;;412.37;389.03;;;15.20;52.30;;;;;;4995159;28;21075;-70
2023/05/08 02:22:26;;;;;;;427.10;402.50;;;15.10;54.40;;;;;;4994952;28;20412;-71
2023/05/08 02:24:54;;;;;;;421.07;397.60;;;15.00;55.80;;;;;;4994947;28;20446;-71
2023/05/08 02:27:21;;;;;;;446.23;421.63;;;15.10;56.50;;;;;;4995514;28;20438;-71
2023/05/08 02:29:49;;;;;;;390.03;366.80;;;15.10;55.90;;;;;;4995049;28;20451;-70
2023/05/08 02:32:17;;;;;;;339.03;319.97;;;15.10;55.90;;;;;;4994799;28;20412;-71
2023/05/08 02:34:43;;;;;;;477.80;451.23;;;15.10;55.90;;;;;;4993610;28;20782;-71
2023/05/08 02:37:10;;;;;;;403.77;381.67;;;15.20;55.90;;;;;;4993825;28;20431;-71
2023/05/08 02:39:38;;;;;;;474.47;448.43;;;15.20;54.90;;;;;;4994872;28;20432;-71
2023/05/08 02:42:03;;;;;;;420.13;397.63;;;15.20;54.30;;;;;;4994618;28;20434;-71
2023/05/08 02:44:29;;;;;;;355.33;336.03;;;15.20;53.90;;;;;;4994685;28;20410;-71
2023/05/08 02:47:26;;;;;;;396.83;375.23;;;15.30;53.00;;;;;;4994751;28;20647;-71
2023/05/08 02:50:24;;;;;;;319.87;301.70;;;15.30;52.00;;;;;;4993425;28;20192;-71
2023/05/08 02:52:53;;;;;;;440.70;414.57;;;15.40;51.20;;;;;;4989364;28;20792;-71
2023/05/08 02:55:25;;;;;;;442.80;417.43;;;15.30;50.00;;;;;;4994489;28;20543;-71
2023/05/08 02:58:14;;;;;;;406.20;383.97;;;15.30;51.00;;;;;;4994433;28;20590;-71
2023/05/08 03:00:55;;;;;;;336.20;317.47;;;15.30;51.10;;;;;;4994441;28;20446;-71
2023/05/08 03:03:29;;;;;;;442.37;416.87;;;15.30;51.00;;;;;;4994320;28;20450;-71
2023/05/08 03:05:58;;;;;;;371.33;349.77;;;15.30;50.40;;;;;;4993121;28;20805;-71
2023/05/08 03:08:33;;;;;;;435.73;411.50;;;15.10;50.90;;;;;;4994412;28;20415;-71
2023/05/08 03:11:04;;;;;;;356.23;336.23;;;15.20;51.00;;;;;;4994341;28;20909;-71
2023/05/08 03:13:33;;;;;;;326.97;308.37;;;15.20;51.40;;;;;;4994143;28;20947;-71
2023/05/08 03:16:01;;;;;;;364.60;344.90;;;15.20;50.30;;;;;;4994252;28;20844;-71
2023/05/08 03:18:35;;;;;;;333.63;315.00;;;15.30;50.20;;;;;;4992677;28;20629;-71
2023/05/08 03:21:01;;;;;;;370.70;350.20;;;15.20;49.80;;;;;;4994249;28;20412;-71
2023/05/08 03:23:31;;;;;;;340.37;321.27;;;15.20;49.40;;;;;;4992513;28;20509;-71
2023/05/08 03:25:59;;;;;;;416.67;393.40;;;15.20;51.00;;;;;;4992811;28;20434;-71
2023/05/08 03:28:26;;;;;;;409.07;387.23;;;15.30;50.50;;;;;;4993998;28;20722;-70
2023/05/08 03:30:52;;;;;;;434.37;411.07;;;15.30;50.30;;;;;;4993911;28;20420;-70
2023/05/08 03:33:20;;;;;;;404.87;381.20;;;15.30;49.40;;;;;;4993635;28;20423;-70
2023/05/08 03:35:46;;;;;;;368.07;347.63;;;15.30;49.10;;;;;;4993365;28;20819;-70
2023/05/08 03:38:12;;;;;;;337.70;318.43;;;15.30;49.40;;;;;;4993719;28;20498;-68
2023/05/08 03:40:38;;;;;;;360.97;341.53;;;15.30;48.90;;;;;;4993788;28;20456;-70
2023/05/08 03:43:08;;;;;;;368.50;347.83;;;15.30;50.20;;;;;;4993454;28;20176;-69
2023/05/08 03:45:38;;;;;;;370.40;348.87;;;15.30;50.40;;;;;;4992294;28;20420;-69
2023/05/08 03:48:05;;;;;;;432.23;408.10;;;15.30;49.80;;;;;;4993498;28;20500;-69
2023/05/08 03:50:33;;;;;;;382.87;360.83;;;15.30;50.20;;;;;;4993541;28;20538;-69
2023/05/08 03:52:58;;;;;;;347.67;328.00;;;15.30;49.60;;;;;;4995762;28;20482;-70
2023/05/08 03:55:24;;;;;;;356.67;336.77;;;15.30;50.30;;;;;;4995703;28;20419;-70
2023/05/08 03:57:57;;;;;;;430.40;405.50;;;15.30;49.50;;;;;;4993242;28;20219;-69
2023/05/08 04:00:43;;;;;;;351.53;332.17;;;15.30;52.00;;;;;;4994270;28;20511;-69
2023/05/08 04:03:23;;;;;;;384.20;362.37;;;15.30;51.40;;;;;;4993637;28;20420;-70
2023/05/08 04:06:01;;;;;;;398.33;374.43;;;15.40;49.90;;;;;;4993276;28;20419;-70
2023/05/08 04:08:38;;;;;;;542.50;507.80;;;15.30;49.40;;;;;;4993111;28;20490;-69
2023/05/08 04:11:14;;;;;;;413.07;391.03;;;15.20;50.40;;;;;;4993277;28;20489;-70
2023/05/08 04:13:48;;;;;;;321.27;302.50;;;15.10;51.80;;;;;;4993107;28;20451;-70
2023/05/08 04:16:21;;;;;;;337.73;318.33;;;15.20;51.70;;;;;;4993137;28;20416;-70
2023/05/08 04:18:49;;;;;;;403.83;381.10;;;15.20;51.20;;;;;;4991616;28;20841;-70
2023/05/08 04:21:21;;;;;;;436.83;412.53;;;15.30;52.30;;;;;;4992862;28;20502;-70
2023/05/08 04:23:49;;;;;;;331.77;312.67;;;15.20;52.40;;;;;;4992975;28;20469;-70
2023/05/08 04:26:16;;;;;;;392.33;370.30;;;15.20;52.30;;;;;;4992870;28;20511;-70
2023/05/08 04:28:43;;;;;;;420.47;396.97;;;15.20;52.00;;;;;;4992768;28;20987;-70
2023/05/08 04:31:09;;;;;;;369.70;348.53;;;15.10;53.50;;;;;;5032943;23;20514;-74
2023/05/08 04:33:35;;;;;;;365.70;344.43;;;15.10;53.10;;;;;;5010468;28;20769;-74
2023/05/08 04:36:02;;;;;;;473.57;444.00;;;15.10;52.60;;;;;;5011889;28;20875;-74
2023/05/08 04:38:27;;;;;;;396.23;372.77;;;15.10;51.80;;;;;;5011916;28;20561;-74
2023/05/08 04:40:53;;;;;;;528.90;495.83;;;15.10;52.40;;;;;;5011725;28;20534;-74
2023/05/08 04:43:18;;;;;;;370.67;349.67;;;15.20;51.60;;;;;;5011579;28;20186;-73
2023/05/08 04:45:44;;;;;;;317.30;298.17;;;15.10;50.90;;;;;;5011715;28;20715;-74
2023/05/08 04:48:10;;;;;;;412.87;389.50;;;15.10;50.90;;;;;;5010969;28;20199;-74
2023/05/08 04:50:35;;;;;;;469.70;441.20;;;15.10;52.50;;;;;;5011785;28;20337;-74
2023/05/08 04:53:01;;;;;;;433.07;407.47;;;15.20;51.00;;;;;;5011633;28;20271;-74
2023/05/08 04:55:26;;;;;;;422.90;397.73;;;15.10;51.00;;;;;;5026928;28;20179;-74
2023/05/08 04:57:52;;;;;;;415.27;392.23;;;15.20;51.00;;;;;;5011701;28;20200;-75
2023/05/08 05:00:18;;;;;;;390.40;368.37;;;15.20;50.30;;;;;;5026689;28;20239;-74
2023/05/08 05:02:43;;;;;;;394.67;371.93;;;15.20;50.20;;;;;;5011336;28;20180;-74
2023/05/08 05:05:10;;;;;;;373.53;351.20;;;15.20;51.00;;;;;;5011655;28;20407;-75
2023/05/08 05:07:35;;;;;;;321.17;302.17;;;15.20;51.60;;;;;;5011511;28;20176;-73
2023/05/08 05:10:01;;;;;;;416.33;390.23;;;15.20;53.40;;;;;;5011599;28;20453;-75
2023/05/08 05:12:26;;;;;;;353.60;332.43;;;15.20;51.90;;;;;;5011349;28;20180;-75
2023/05/08 05:14:52;;;;;;;343.40;323.40;;;15.10;53.10;;;;;;5011503;28;20211;-75
2023/05/08 05:17:17;;;;;;;405.77;382.90;;;15.10;53.60;;;;;;5011437;28;20208;-74
2023/05/08 05:19:43;;;;;;;316.73;297.83;;;15.00;54.40;;;;;;5026471;28;20200;-75
2023/05/08 05:22:08;;;;;;;446.40;422.23;;;15.00;55.00;;;;;;5011359;28;20183;-75
2023/05/08 05:24:34;;;;;;;413.83;389.40;;;15.10;55.20;;;;;;5011589;28;20176;-75
2023/05/08 05:27:01;;;;;;;446.97;420.13;;;15.00;54.50;;;;;;5011558;28;20183;-75
2023/05/08 05:29:27;;;;;;;395.37;373.40;;;14.80;57.00;;;;;;5026515;28;20517;-75
2023/05/08 05:31:53;;;;;;;498.17;469.70;;;14.80;59.10;;;;;;5011283;28;20423;-75
2023/05/08 05:34:18;;;;;;;518.23;486.83;;;14.70;59.40;;;;;;5011594;28;20449;-76
2023/05/08 05:36:44;;;;;;;440.10;415.30;;;14.70;59.80;;;;;;5011500;28;20187;-76
2023/05/08 05:39:09;;;;;;;430.17;405.67;;;14.70;60.40;;;;;;5011343;28;20215;-76
2023/05/08 05:41:35;;;;;;;444.97;418.50;;;14.70;60.00;;;;;;5011693;28;20210;-74
2023/05/08 05:44:00;;;;;;;423.87;400.17;;;14.80;60.50;;;;;;5011656;28;20172;-76
2023/05/08 05:46:31;;;;;;;409.73;384.17;;;14.80;60.60;;;;;;5027667;28;20270;-76
2023/05/08 05:48:57;;;;;;;493.20;461.67;;;14.90;58.60;;;;;;5011802;28;20178;-75
2023/05/08 05:51:23;;;;;;;478.53;450.30;;;15.00;58.60;;;;;;5011513;28;20904;-74
2023/05/08 05:53:48;;;;;;;491.50;462.43;;;14.90;58.30;;;;;;5011774;28;20419;-76
2023/05/08 05:56:14;;;;;;;458.87;431.93;;;15.00;58.70;;;;;;5013493;28;20308;-75
2023/05/08 05:58:43;;;;;;;471.30;445.33;;;15.10;58.00;;;;;;5011399;28;20196;-76
2023/05/08 06:01:09;;;;;;;473.43;446.27;;;15.20;57.40;;;;;;5031642;28;20203;-74
2023/05/08 06:03:34;;;;;;;500.73;471.33;;;15.30;56.10;;;;;;5016030;28;20426;-76
2023/05/08 06:06:00;;;;;;;473.70;447.60;;;15.30;56.10;;;;;;5015436;28;20685;-76
2023/05/08 06:08:25;;;;;;;375.83;354.17;;;15.40;55.20;;;;;;5014935;28;20176;-75
2023/05/08 06:10:51;;;;;;;515.53;485.00;;;15.50;54.00;;;;;;5014577;28;20665;-74
2023/05/08 06:13:16;;;;;;;397.57;375.63;;;15.50;53.10;;;;;;5014415;28;20172;-75
2023/05/08 06:15:42;;;;;;;402.80;380.30;;;15.60;52.10;;;;;;5014769;28;20184;-75
2023/05/08 06:18:08;;;;;;;419.83;395.93;;;15.70;50.00;;;;;;5015113;28;20242;-75
2023/05/08 06:20:33;;;;;;;439.00;414.33;;;15.80;50.60;;;;;;5014588;28;20195;-76
2023/05/08 06:22:59;;;;;;;464.67;437.13;;;15.80;49.70;;;;;;5014393;28;20171;-75
2023/05/08 06:25:26;;;;;;;402.50;379.33;;;15.90;49.10;;;;;;5014553;28;20540;-75
2023/05/08 06:27:52;;;;;;;414.90;390.27;;;16.00;46.70;;;;;;5014874;28;20548;-74
2023/05/08 06:30:17;;;;;;;453.67;427.27;;;16.10;45.80;;;;;;5014958;28;20464;-75
2023/05/08 06:32:43;;;;;;;483.27;453.60;;;16.00;46.70;;;;;;5014352;28;20259;-75
2023/05/08 06:35:09;;;;;;;433.80;410.87;;;16.00;48.70;;;;;;5014418;28;20544;-72
2023/05/08 06:37:34;;;;;;;396.23;371.50;;;16.00;50.00;;;;;;5029792;28;20227;-72
2023/05/08 06:40:00;;;;;;;472.77;446.17;;;16.10;48.70;;;;;;5015266;28;20254;-73
2023/05/08 06:42:26;;;;;;;488.03;461.33;;;16.10;46.80;;;;;;5016558;28;20179;-73
2023/05/08 06:44:52;;;;;;;438.70;414.00;;;16.20;46.80;;;;;;5024582;28;20221;-74
2023/05/08 06:47:18;;;;;;;398.00;374.10;;;16.20;45.00;;;;;;5023314;28;20600;-71
2023/05/08 06:49:43;;;;;;;410.87;385.80;;;16.10;44.30;;;;;;5022500;28;20493;-69
2023/05/08 06:52:09;;;;;;;458.20;428.63;;;15.90;46.60;;;;;;5014295;28;20490;-71
2023/05/08 06:54:34;;;;;;;404.60;381.03;;;15.80;47.80;;;;;;5016204;28;20255;-71
2023/05/08 06:57:00;;;;;;;442.13;416.30;;;15.90;47.80;;;;;;5017440;28;20188;-71
2023/05/08 06:59:25;;;;;;;450.10;424.70;;;16.00;46.60;;;;;;5012656;28;20211;-72
2023/05/08 07:01:51;;;;;;;477.50;449.20;;;16.00;47.50;;;;;;5013053;28;20664;-72
2023/05/08 07:04:17;;;;;;;575.80;537.97;;;16.20;46.20;;;;;;5014349;28;20678;-70
2023/05/08 07:06:42;;;;;;;537.23;504.33;;;16.10;45.30;;;;;;5013330;28;20566;-70
2023/05/08 07:09:08;;;;;;;444.73;419.30;;;16.10;43.90;;;;;;5013439;28;20259;-70
2023/05/08 07:11:34;;;;;;;454.53;427.93;;;16.10;44.00;;;;;;5012567;28;20187;-72
2023/05/08 07:13:59;;;;;;;374.07;351.93;;;16.10;44.70;;;;;;5014103;28;20424;-70
2023/05/08 07:16:25;;;;;;;480.40;451.20;;;16.10;44.30;;;;;;5013263;28;20188;-72
2023/05/08 07:18:50;;;;;;;453.07;425.10;;;16.00;44.90;;;;;;5012147;28;20219;-71
2023/05/08 07:21:17;;;;;;;444.43;416.90;;;15.90;45.60;;;;;;5011500;28;20281;-70
2023/05/08 07:23:43;;;;;;;505.80;475.00;;;15.90;46.20;;;;;;5000368;28;20180;-71
2023/05/08 07:26:08;;;;;;;449.27;423.53;;;15.90;46.60;;;;;;4995283;28;20449;-71
2023/05/08 07:28:34;;;;;;;425.27;401.17;;;15.90;46.60;;;;;;5007860;28;20263;-71
2023/05/08 07:31:04;;;;;;;465.30;438.60;;;15.90;45.40;;;;;;5001694;28;20219;-71
2023/05/08 07:33:29;;;;;;;401.07;376.83;;;15.70;46.40;;;;;;5008893;28;20195;-71
2023/05/08 07:35:55;;;;;;;462.33;434.77;;;15.70;46.40;;;;;;5008501;28;20844;-71
2023/05/08 07:38:20;;;;;;;421.47;395.80;;;15.70;46.90;;;;;;5008417;28;20618;-71
2023/05/08 07:40:47;;;;;;;495.13;465.90;;;15.80;46.50;;;;;;5007945;28;20203;-71
2023/05/08 07:43:13;;;;;;;425.20;399.43;;;15.80;46.60;;;;;;4993881;28;20672;-71
2023/05/08 07:45:39;;;;;;;511.77;479.97;;;15.80;46.60;;;;;;5011364;28;21114;-71
2023/05/08 07:48:06;;;;;;;400.30;377.10;;;15.70;47.30;;;;;;5012896;28;20473;-70
2023/05/08 07:50:31;;;;;;;396.00;372.67;;;15.60;47.00;;;;;;5013066;28;20621;-71
2023/05/08 07:52:57;;;;;;;480.90;452.20;;;15.60;49.00;;;;;;5012247;28;20441;-71
2023/05/08 07:55:22;;;;;;;433.43;408.23;;;15.60;49.20;;;;;;5012290;28;20188;-69
2023/05/08 07:57:48;;;;;;;424.07;398.50;;;15.50;49.10;;;;;;5012719;28;20235;-72
2023/05/08 08:00:14;;;;;;;371.80;350.97;;;15.50;49.50;;;;;;5012736;28;20568;-71
2023/05/08 08:02:41;;;;;;;386.03;364.77;;;15.60;49.80;;;;;;5013002;28;20204;-72
2023/05/08 08:05:07;;;;;;;440.03;414.60;;;15.60;49.50;;;;;;5013804;28;20427;-71
2023/05/08 08:07:32;;;;;;;407.57;385.00;;;15.60;49.30;;;;;;5012174;28;20426;-70
2023/05/08 08:09:58;;;;;;;587.80;549.87;;;15.60;49.20;;;;;;5011327;28;20450;-70
2023/05/08 08:12:24;;;;;;;488.23;459.33;;;15.70;47.80;;;;;;5011997;28;20186;-70
2023/05/08 08:14:50;;;;;;;468.57;439.70;;;15.60;48.10;;;;;;5011896;28;20429;-70
2023/05/08 08:17:15;;;;;;;423.33;400.10;;;15.70;48.40;;;;;;5012114;28;20180;-71
2023/05/08 08:19:41;;;;;;;484.50;454.33;;;15.70;49.40;;;;;;4996429;28;20212;-70
2023/05/08 08:22:06;;;;;;;420.63;397.50;;;15.80;49.10;;;;;;4992042;28;20659;-71
2023/05/08 08:24:32;;;;;;;425.30;401.00;;;15.80;48.90;;;;;;4999318;28;20180;-71
2023/05/08 08:26:57;;;;;;;459.83;431.93;;;16.00;48.50;;;;;;5012217;28;20184;-71
2023/05/08 08:29:23;;;;;;;450.60;425.83;;;16.00;47.50;;;;;;5011775;28;20307;-70
2023/05/08 08:31:49;;;;;;;384.40;361.37;;;16.20;46.80;;;;;;5011606;28;20180;-70
2023/05/08 08:34:14;;;;;;;438.97;414.20;;;16.20;45.50;;;;;;5011780;28;20603;-71
2023/05/08 08:36:40;;;;;;;432.43;406.40;;;16.30;45.10;;;;;;5012215;28;20187;-71
2023/05/08 08:39:05;;;;;;;428.07;405.20;;;16.30;42.10;;;;;;5011941;28;20222;-71
2023/05/08 08:41:32;;;;;;;469.50;442.07;;;16.50;39.80;;;;;;5011608;28;20634;-70
2023/05/08 08:43:57;;;;;;;494.50;463.17;;;16.70;38.30;;;;;;5011331;28;20172;-70
2023/05/08 08:46:25;;;;;;;339.57;319.63;;;16.90;37.10;;;;;;5011566;28;20411;-70
2023/05/08 08:48:55;;;;;;;481.73;453.67;;;17.10;36.60;;;;;;5011409;28;20168;-70
2023/05/08 08:51:30;;;;;;;539.23;505.57;;;17.30;35.10;;;;;;5011295;28;20422;-70
2023/05/08 08:54:08;;;;;;;542.53;511.27;;;17.50;34.20;;;;;;5011003;28;20436;-72
2023/05/08 08:56:37;;;;;;;534.33;505.20;;;17.60;32.40;;;;;;5011057;28;20434;-72
2023/05/08 08:59:04;;;;;;;479.10;451.07;;;17.80;32.30;;;;;;5010804;28;20587;-72
2023/05/08 09:01:34;;;;;;;433.90;408.47;;;18.00;28.80;;;;;;5011477;28;20411;-73
2023/05/08 09:04:00;;;;;;;429.03;402.13;;;18.20;28.20;;;;;;5011502;28;20415;-73
2023/05/08 09:06:27;;;;;;;458.00;432.23;;;18.40;26.80;;;;;;5011285;28;20430;-73
2023/05/08 09:08:59;;;;;;;497.57;466.77;;;18.60;26.10;;;;;;5011451;28;20411;-73
2023/05/08 09:11:25;;;;;;;577.07;542.07;;;18.80;25.70;;;;;;5011726;28;20415;-71
2023/05/08 09:13:50;;;;;;;473.87;447.30;;;19.10;25.10;;;;;;5011422;28;20453;-72
2023/05/08 09:16:17;;;;;;;687.93;638.43;;;19.20;24.70;;;;;;5011445;28;20474;-72
2023/05/08 09:18:42;;;;;;;445.30;419.00;;;19.30;23.40;;;;;;5011293;28;20206;-72
2023/05/08 09:21:08;;;;;;;612.40;571.77;;;19.50;23.20;;;;;;5011372;28;20451;-73
2023/05/08 09:23:36;;;;;;;634.33;591.97;;;19.50;22.90;;;;;;5011088;28;20608;-73
2023/05/08 09:26:02;;;;;;;548.43;513.77;;;19.60;23.30;;;;;;5004293;28;20588;-73
2023/05/08 09:28:28;;;;;;;642.50;598.93;;;19.90;22.80;;;;;;5008658;28;20426;-72
2023/05/08 09:30:55;;;;;;;495.50;462.50;;;19.90;21.60;;;;;;5011045;28;20737;-73
2023/05/08 09:33:23;;;;;;;529.80;494.47;;;20.20;20.10;;;;;;5011015;28;20187;-73
2023/05/08 09:35:49;;;;;;;512.10;475.33;;;20.40;18.50;;;;;;5014674;28;20415;-72
2023/05/08 09:38:36;;;;;;;769.43;712.40;;;20.50;18.20;;;;;;5014960;28;20458;-73
2023/05/08 09:41:06;;;;;;;750.67;692.20;;;20.60;18.40;;;;;;5014819;28;20427;-71
2023/05/08 09:43:32;;;;;;;813.83;751.87;;;20.60;18.70;;;;;;5014638;28;20419;-71
2023/05/08 09:45:57;;;;;;;772.00;708.50;;;20.60;18.60;;;;;;5014887;28;20421;-71
2023/05/08 09:48:38;;;;;;;581.93;542.43;;;20.80;18.50;;;;;;5014831;28;20257;-71
2023/05/08 09:51:06;;;;;;;589.83;547.60;;;20.90;17.40;;;;;;5015026;28;20199;-72
2023/05/08 09:53:32;;;;;;;563.87;526.23;;;21.20;17.40;;;;;;5014963;28;20425;-73
2023/05/08 09:56:00;;;;;;;764.70;700.30;;;21.00;17.20;;;;;;5014840;28;20422;-73
2023/05/08 09:58:46;;;;;;;566.73;529.43;;;21.00;17.90;;;;;;5014735;28;20249;-72
2023/05/08 10:01:35;;;;;;;747.00;686.70;;;21.10;18.30;;;;;;5014390;28;20446;-74
2023/05/08 10:04:02;;;;;;;577.07;538.47;;;20.90;17.20;;;;;;5014573;28;20770;-73
2023/05/08 10:06:28;;;;;;;802.17;741.27;;;20.90;17.50;;;;;;5015620;28;20506;-72
2023/05/08 10:09:11;;;;;;;701.33;650.10;;;21.10;18.40;;;;;;5015753;28;20454;-76
2023/05/08 10:11:50;;;;;;;632.17;582.93;;;21.00;17.20;;;;;;5013613;28;20529;-73
2023/05/08 10:14:16;;;;;;;596.70;556.97;;;20.90;19.00;;;;;;5006045;28;20971;-72
2023/05/08 10:16:43;;;;;;;558.20;522.77;;;21.00;18.90;;;;;;4994609;28;20463;-72
2023/05/08 10:19:17;;;;;;;766.27;709.30;;;21.20;17.40;;;;;;4993738;28;20707;-73
2023/05/08 10:21:51;;;;;;;808.13;739.80;;;21.30;17.40;;;;;;4995262;28;20836;-73
2023/05/08 10:24:32;;;;;;;707.00;652.67;;;21.20;17.80;;;;;;4994850;28;20470;-73
2023/05/08 10:27:07;;;;;;;793.37;730.37;;;21.40;17.50;;;;;;4994671;28;20865;-73
2023/05/08 10:29:50;;;;;;;586.43;541.50;;;21.50;15.90;;;;;;4995493;28;20509;-73
2023/05/08 10:32:19;;;;;;;792.67;726.20;;;21.70;16.70;;;;;;4994630;28;20418;-73
2023/05/08 10:34:48;;;;;;;751.33;694.93;;;22.00;15.80;;;;;;4994990;28;20420;-72
2023/05/08 10:37:14;;;;;;;817.80;750.60;;;22.20;13.80;;;;;;4994516;28;20458;-71
2023/05/08 10:39:41;;;;;;;884.60;809.70;;;22.50;13.80;;;;;;4994506;28;20431;-72
2023/05/08 10:42:07;;;;;;;786.63;728.27;;;22.50;13.60;;;;;;4994002;28;20502;-73
2023/05/08 10:44:37;;;;;;;932.73;851.83;;;22.30;13.50;;;;;;4994379;28;20491;-73
2023/05/08 10:47:18;;;;;;;708.80;657.60;;;22.20;13.80;;;;;;4994330;28;20350;-72
2023/05/08 10:50:21;;;;;;;771.93;715.93;;;22.30;14.40;;;;;;4994156;28;20435;-73
2023/05/08 10:53:06;;;;;;;554.27;519.87;;;22.10;14.40;;;;;;4994103;28;20765;-73
2023/05/08 10:55:36;;;;;;;850.70;782.60;;;22.00;16.00;;;;;;4994223;28;20469;-72
2023/05/08 10:58:01;;;;;;;986.67;894.83;;;21.60;15.00;;;;;;4994041;28;20812;-72
2023/05/08 11:00:49;;;;;;;979.97;887.53;;;21.50;16.40;;;;;;4993923;28;20432;-73
2023/05/08 11:03:16;;;;;;;870.00;794.43;;;21.20;17.40;;;;;;4993915;28;20588;-73
2023/05/08 11:05:46;;;;;;;609.00;567.73;;;20.90;17.20;;;;;;4994150;28;20412;-73
2023/05/08 11:08:28;;;;;;;766.77;705.50;;;20.60;18.00;;;;;;4994016;28;20419;-72
2023/05/08 11:11:00;;;;;;;734.97;679.30;;;20.40;18.50;;;;;;4993997;28;20439;-72
2023/05/08 11:13:39;;;;;;;661.47;613.70;;;20.10;19.40;;;;;;4993662;28;20732;-72
2023/05/08 11:16:11;;;;;;;783.20;721.80;;;20.20;21.10;;;;;;4993953;28;20786;-72
2023/05/08 11:18:36;;;;;;;808.03;746.23;;;20.30;21.50;;;;;;4993783;28;20486;-72
2023/05/08 11:21:07;;;;;;;774.40;714.43;;;20.20;20.30;;;;;;4993909;28;20431;-73
2023/05/08 11:23:36;;;;;;;707.70;655.87;;;19.80;21.70;;;;;;4993559;28;20177;-72
2023/05/08 11:26:05;;;;;;;578.70;539.27;;;19.80;22.70;;;;;;4993981;28;20408;-72
2023/05/08 11:28:32;;;;;;;553.33;517.07;;;19.90;23.80;;;;;;4993739;28;20902;-73
2023/05/08 11:31:05;;;;;;;765.00;709.87;;;19.90;24.40;;;;;;4993613;28;20459;-73
2023/05/08 11:33:33;;;;;;;740.27;688.27;;;19.60;24.20;;;;;;4993970;28;20563;-71
2023/05/08 11:36:21;;;;;;;632.83;590.30;;;19.30;24.70;;;;;;4994144;28;20431;-72
2023/05/08 11:39:08;;;;;;;741.90;690.87;;;18.70;26.90;;;;;;4994050;28;20463;-72
2023/05/08 11:41:34;;;;;;;643.67;601.67;;;18.40;30.00;;;;;;4993230;28;20827;-73
2023/05/08 11:44:08;;;;;;;599.37;560.47;;;18.20;32.40;;;;;;4993430;28;20408;-72
2023/05/08 11:46:39;;;;;;;488.33;457.87;;;18.00;34.10;;;;;;4993522;28;20168;-73
2023/05/08 11:49:04;;;;;;;514.53;481.20;;;17.80;35.60;;;;;;4993168;28;20461;-73
2023/05/08 11:51:31;;;;;;;545.27;512.87;;;17.70;36.50;;;;;;4993192;28;21145;-73
2023/05/08 11:54:35;;;;;;;749.10;700.00;;;17.70;37.80;;;;;;4993550;28;20662;-70
2023/05/08 11:57:01;;;;;;;471.17;444.90;;;17.80;36.80;;;;;;4991736;28;20516;-71
2023/05/08 11:59:27;;;;;;;608.20;568.13;;;18.00;37.10;;;;;;4993168;28;21168;-73
2023/05/08 12:01:55;;;;;;;585.60;548.03;;;18.10;35.70;;;;;;4993176;28;20412;-73
2023/05/08 12:04:29;;;;;;;592.57;554.90;;;18.10;35.70;;;;;;4993374;28;20744;-72
2023/05/08 12:06:58;;;;;;;571.23;533.60;;;17.90;35.70;;;;;;5008534;28;20938;-72
2023/05/08 12:09:24;;;;;;;544.60;510.30;;;17.50;36.70;;;;;;4992650;28;20467;-72
2023/05/08 12:12:09;;;;;;;537.23;503.97;;;17.30;39.10;;;;;;4992872;28;20995;-72
2023/05/08 12:14:38;;;;;;;588.17;550.10;;;17.20;40.80;;;;;;4992476;28;20200;-71
2023/05/08 12:17:03;;;;;;;654.73;612.67;;;17.30;40.00;;;;;;4993025;28;20420;-71
2023/05/08 12:19:53;;;;;;;542.47;509.23;;;17.30;40.00;;;;;;4993152;28;20493;-73